Startpagina
METAR-TAF:

METAR-TAF

Vliegvelden :

Luchthaven M'Poko Internationaal

Bangui, Centraal-Afrikaanse Republiek

breedte: 04-24N, lengte: 018-31E, hoogte: 365 m

Actueel weer

Dit bericht is 1 uur en het 16 minuten geleden gemaakt, om 05:00 UTC
Wind 2 kt uit variabele richting
Temperatuur 22°C
Vochtigheid 94%
Druk 1014 hPa
Zicht: 8000 m
Weinig wolken op 500 ft

METAR: FEFF 160500Z VRB02KT 8000 FEW005 22/21 Q1014 NOSIG

Tijdstip: 07:16 (06:16 UTC)

Verwachting

Dit bericht is 1 uur en het 16 minuten geleden gemaakt, om 05:00 UTC
Verwachting geldig van 16 om 06 UTC tot 17 om 12 UTC
Wind 6 kt uit het westzuidwesten
Zicht 10 km of meer
Verspreide wolken op 1300 ft
Wijzigt naar
van 16 om 10 UTC tot 16 om 12 UTC
Gebroken wolken op 2300 ft
Weinig wolken op 4000 ft, Cumulonimbus.
Tijdelijke
van 16 om 13 UTC tot 16 om 16 UTC
Wind 15 kt uit het oosten
Zicht: 4000 m
onweer, regen

TAF: FEFF 160500Z 1606/1712 24006KT 9999 SCT013 BECMG 1610/1612 BKN023 FEW040CB TEMPO 1613/1616 09015KT 4000 TSRA

Waarnemingen en weersverwachtingen van meer dan 4000 vliegvelden (METAR en TAF).

De beschikbare stations zijn de gele en rode punten op de kaart.

Ga met uw muis naar het station om de naam te zien.

Klik dan om waarnemingen en weersverwachtingen te zien.

kaart wijzigen: klik op de groene knoppen met een zwart kruis om in te zoomen, op de groene knop met een streepje om uit te zoomen of op de groene pijlen voor aangrenzende kaarten.


METAR-TAF: